M I D A S
Marine Information and Data Acquisition System
Tripno 1974 of the Zeeleeuw from 2010-10-18 06:53:57 to 2010-10-18 15:41:18
Back to CruiseResearch ActivitiesStationsMapUnderway DataData graphs

EquipmentUnitsComment
TimeDGPSUTC
LatitudeDGPSDM.mWGS84
LongitudeDGPSDM.mWGS84
HeadingGyrodeg 
SOGDGPSknotsSpeed over ground
COGDGPSdegCourse over ground
DepthEcho soundermeters200 kHz
Missing or incorrect values are displayed as -999
Navigation data collected by the RV Zeeleeuw from 2010-10-18 06:22:17 to 2010-10-18 15:50:19
                                                                                    Next 1000 lines
Time Latitude Longitude Heading SOG COG Depth
2010-10-18 06:22:27 51°13.662 2°55.959 124.3 0.1 197 -999
2010-10-18 06:22:32 51°13.663 2°55.959 124.3 0.1 44 -999
2010-10-18 06:22:37 51°13.663 2°55.958 124.3 0.1 307 -999
2010-10-18 06:22:42 51°13.663 2°55.958 124.3 0.1 260 -999
2010-10-18 06:22:47 51°13.663 2°55.959 124.3 0.1 45 -999
2010-10-18 06:22:52 51°13.663 2°55.959 124.3 0.1 21 -999
2010-10-18 06:22:57 51°13.663 2°55.958 124.2 0.1 22 -999
2010-10-18 06:23:02 51°13.663 2°55.958 124.2 0.1 19 -999
2010-10-18 06:23:07 51°13.663 2°55.958 124.2 0.1 11 -999
2010-10-18 06:23:12 51°13.663 2°55.958 124.3 0.1 69 -999
2010-10-18 06:23:17 51°13.663 2°55.958 124.3 -999 148 -999
2010-10-18 06:23:22 51°13.663 2°55.958 124.4 0.1 36 -999
2010-10-18 06:23:27 51°13.663 2°55.958 124.4 -999 200 -999
2010-10-18 06:23:32 51°13.663 2°55.958 124.5 0.1 201 -999
2010-10-18 06:23:37 51°13.662 2°55.958 124.6 0.2 148 -999
2010-10-18 06:23:42 51°13.662 2°55.959 124.8 0.2 145 -999
2010-10-18 06:23:47 51°13.662 2°55.959 124.9 0.2 144 -999
2010-10-18 06:23:52 51°13.662 2°55.959 124.9 0.2 148 -999
2010-10-18 06:23:57 51°13.663 2°55.958 125 0.1 177 -999
2010-10-18 06:24:02 51°13.663 2°55.958 125.1 -999 145 -999
2010-10-18 06:24:07 51°13.663 2°55.958 125.3 -999 145 -999
2010-10-18 06:24:12 51°13.663 2°55.958 125.4 -999 212 -999
2010-10-18 06:24:17 51°13.663 2°55.958 125.5 -999 181 -999
2010-10-18 06:24:22 51°13.663 2°55.958 125.6 0.1 189 -999
2010-10-18 06:24:27 51°13.663 2°55.958 125.6 -999 174 -999
2010-10-18 06:24:32 51°13.663 2°55.959 125.6 0.1 91 -999
2010-10-18 06:24:37 51°13.664 2°55.958 125.6 -999 346 -999
2010-10-18 06:24:42 51°13.663 2°55.959 125.6 -999 121 -999
2010-10-18 06:24:47 51°13.663 2°55.959 125.6 0.1 215 -999
2010-10-18 06:24:52 51°13.663 2°55.959 125.5 0.1 197 -999
2010-10-18 06:24:57 51°13.663 2°55.959 125.4 -999 125 -999
2010-10-18 06:25:02 51°13.664 2°55.959 125.4 -999 86 -999
2010-10-18 06:25:07 51°13.664 2°55.959 125.4 -999 152 -999
2010-10-18 06:25:12 51°13.664 2°55.96 125.4 -999 190 -999
2010-10-18 06:25:17 51°13.664 2°55.96 125.4 -999 243 -999
2010-10-18 06:25:22 51°13.664 2°55.96 125.4 -999 331 -999
2010-10-18 06:25:27 51°13.664 2°55.96 125.4 0.1 237 -999
2010-10-18 06:25:32 51°13.663 2°55.96 125.4 0.1 153 -999
2010-10-18 06:25:37 51°13.663 2°55.96 125.4 0.1 47 -999
2010-10-18 06:25:42 51°13.663 2°55.96 125.4 -999 156 -999
2010-10-18 06:25:47 51°13.663 2°55.96 125.4 -999 173 -999
2010-10-18 06:25:52 51°13.663 2°55.961 125.4 -999 34 -999
2010-10-18 06:25:57 51°13.663 2°55.961 125.3 -999 346 -999
2010-10-18 06:26:02 51°13.663 2°55.961 125.3 0.1 8 -999
2010-10-18 06:26:07 51°13.663 2°55.96 125.2 0.1 225 -999
2010-10-18 06:26:12 51°13.663 2°55.961 125.2 0.1 185 -999
2010-10-18 06:26:17 51°13.663 2°55.961 125.2 -999 39 -999
2010-10-18 06:26:22 51°13.663 2°55.961 125.2 -999 279 -999
2010-10-18 06:26:27 51°13.663 2°55.96 125.2 -999 231 -999
2010-10-18 06:26:32 51°13.663 2°55.96 125.2 -999 313 -999
2010-10-18 06:26:37 51°13.663 2°55.96 125.2 -999 -999 -999
2010-10-18 06:26:42 51°13.663 2°55.96 125.2 -999 3 -999
2010-10-18 06:26:47 51°13.663 2°55.96 125.1 -999 234 -999
2010-10-18 06:26:52 51°13.663 2°55.96 125 -999 166 -999
2010-10-18 06:26:57 51°13.663 2°55.96 125 -999 332 -999
2010-10-18 06:27:02 51°13.663 2°55.959 125 0.1 22 -999
2010-10-18 06:27:07 51°13.663 2°55.959 125 -999 48 -999
2010-10-18 06:27:12 51°13.662 2°55.959 125.1 0.1 157 -999
2010-10-18 06:27:17 51°13.662 2°55.959 125.3 0.1 167 -999
2010-10-18 06:27:22 51°13.662 2°55.959 125.6 -999 171 -999
2010-10-18 06:27:27 51°13.662 2°55.959 125.7 0.1 304 -999
2010-10-18 06:27:32 51°13.662 2°55.959 125.7 0.1 351 -999
2010-10-18 06:27:37 51°13.662 2°55.959 125.3 0.1 1 -999
2010-10-18 06:27:42 51°13.662 2°55.959 125 0.1 261 -999
2010-10-18 06:27:47 51°13.662 2°55.959 124.7 -999 339 -999
2010-10-18 06:27:52 51°13.662 2°55.959 124.5 -999 201 -999
2010-10-18 06:27:57 51°13.662 2°55.959 124.3 -999 29 -999
2010-10-18 06:28:02 51°13.662 2°55.959 124.3 -999 358 -999
2010-10-18 06:28:07 51°13.662 2°55.959 124.3 -999 352 -999
2010-10-18 06:28:12 51°13.662 2°55.959 124.3 -999 207 -999
2010-10-18 06:28:18 51°13.662 2°55.959 124.5 -999 202 -999
2010-10-18 06:28:22 51°13.662 2°55.959 124.6 -999 202 -999
2010-10-18 06:28:27 51°13.663 2°55.959 124.6 -999 255 -999
2010-10-18 06:28:32 51°13.663 2°55.959 124.6 -999 341 -999
2010-10-18 06:28:37 51°13.663 2°55.959 124.7 -999 28 -999
2010-10-18 06:28:42 51°13.663 2°55.959 124.7 -999 324 -999
2010-10-18 06:28:47 51°13.663 2°55.959 124.7 -999 64 -999
2010-10-18 06:28:52 51°13.663 2°55.959 124.7 -999 46 -999
2010-10-18 06:28:57 51°13.663 2°55.959 124.8 -999 170 -999
2010-10-18 06:29:02 51°13.663 2°55.959 124.9 0.1 198 -999
2010-10-18 06:29:07 51°13.663 2°55.959 124.9 -999 170 -999
2010-10-18 06:29:12 51°13.663 2°55.959 125.1 0.1 209 -999
2010-10-18 06:29:17 51°13.662 2°55.959 125.2 0.1 174 -999
2010-10-18 06:29:22 51°13.662 2°55.959 125.3 -999 168 -999
2010-10-18 06:29:27 51°13.662 2°55.959 125.5 -999 176 -999
2010-10-18 06:29:32 51°13.662 2°55.959 125.5 -999 215 -999
2010-10-18 06:29:37 51°13.662 2°55.959 125.5 -999 202 -999
2010-10-18 06:29:42 51°13.662 2°55.959 125.2 -999 21 -999
2010-10-18 06:29:47 51°13.662 2°55.959 124.9 0.1 11 -999
2010-10-18 06:29:52 51°13.662 2°55.959 124.5 -999 355 -999
2010-10-18 06:29:57 51°13.662 2°55.959 124.4 0.1 25 -999
2010-10-18 06:30:02 51°13.663 2°55.959 124.5 0.1 337 -999
2010-10-18 06:30:07 51°13.663 2°55.959 124.6 -999 281 -999
2010-10-18 06:30:12 51°13.663 2°55.959 124.6 -999 17 -999
2010-10-18 06:30:17 51°13.663 2°55.959 124.5 -999 338 -999
2010-10-18 06:30:22 51°13.663 2°55.959 124.4 -999 220 -999
2010-10-18 06:30:27 51°13.663 2°55.959 124.3 -999 178 -999
2010-10-18 06:30:32 51°13.663 2°55.959 124.2 -999 201 -999
2010-10-18 06:30:37 51°13.663 2°55.959 124.2 -999 163 -999
2010-10-18 06:30:42 51°13.663 2°55.96 124.2 -999 149 -999
2010-10-18 06:30:47 51°13.663 2°55.959 124.2 -999 195 -999
2010-10-18 06:30:52 51°13.663 2°55.96 124.2 0.1 195 -999
2010-10-18 06:30:57 51°13.663 2°55.96 124.3 -999 192 -999
2010-10-18 06:31:02 51°13.663 2°55.96 124.5 -999 208 -999
2010-10-18 06:31:07 51°13.663 2°55.96 124.6 -999 193 -999
2010-10-18 06:31:12 51°13.663 2°55.96 124.7 -999 190 -999
2010-10-18 06:31:17 51°13.663 2°55.96 124.7 -999 141 -999
2010-10-18 06:31:22 51°13.663 2°55.96 124.7 -999 40 -999
2010-10-18 06:31:27 51°13.664 2°55.96 124.7 -999 166 -999
2010-10-18 06:31:32 51°13.664 2°55.96 124.7 -999 161 -999
2010-10-18 06:31:37 51°13.665 2°55.959 124.6 0.1 22 -999
2010-10-18 06:31:42 51°13.665 2°55.959 124.5 0.1 8 -999
2010-10-18 06:31:47 51°13.665 2°55.959 124.5 -999 221 -999
2010-10-18 06:31:52 51°13.665 2°55.959 124.4 -999 197 -999
2010-10-18 06:31:57 51°13.665 2°55.959 124.4 -999 198 -999
2010-10-18 06:32:02 51°13.665 2°55.959 124.3 -999 188 -999
2010-10-18 06:32:07 51°13.665 2°55.959 124.3 -999 1 -999
2010-10-18 06:32:12 51°13.664 2°55.959 124.3 -999 353 -999
2010-10-18 06:32:17 51°13.663 2°55.959 124.2 -999 313 -999
2010-10-18 06:32:22 51°13.663 2°55.96 124.2 0.1 2 -999
2010-10-18 06:32:27 51°13.662 2°55.96 124.2 -999 203 -999
2010-10-18 06:32:32 51°13.662 2°55.96 124.1 0.1 6 -999
2010-10-18 06:32:37 51°13.662 2°55.96 124.1 -999 276 -999
2010-10-18 06:32:42 51°13.662 2°55.96 124.1 -999 63 -999
2010-10-18 06:32:47 51°13.663 2°55.96 124.1 -999 4 -999
2010-10-18 06:32:52 51°13.663 2°55.96 124.1 -999 339 -999
2010-10-18 06:32:57 51°13.663 2°55.96 124 -999 12 -999
2010-10-18 06:33:02 51°13.663 2°55.96 124 -999 11 -999
2010-10-18 06:33:07 51°13.663 2°55.96 124 -999 26 -999
2010-10-18 06:33:12 51°13.663 2°55.96 124 -999 356 -999
2010-10-18 06:33:17 51°13.663 2°55.96 124 -999 310 -999
2010-10-18 06:33:22 51°13.663 2°55.96 124.1 -999 220 -999
2010-10-18 06:33:27 51°13.663 2°55.96 124.1 -999 56 -999
2010-10-18 06:33:32 51°13.663 2°55.96 124.1 -999 12 -999
2010-10-18 06:33:37 51°13.663 2°55.96 124.1 0.1 203 -999
2010-10-18 06:33:42 51°13.663 2°55.96 124.1 -999 30 -999
2010-10-18 06:33:47 51°13.663 2°55.96 124.1 -999 13 -999
2010-10-18 06:33:52 51°13.663 2°55.96 124.2 0.1 203 -999
2010-10-18 06:33:57 51°13.663 2°55.96 124.2 0.1 178 -999
2010-10-18 06:34:02 51°13.663 2°55.961 124.2 -999 82 -999
2010-10-18 06:34:07 51°13.662 2°55.961 124.2 -999 43 -999
2010-10-18 06:34:12 51°13.662 2°55.961 124.2 -999 180 -999
2010-10-18 06:34:17 51°13.662 2°55.961 124.2 -999 173 -999
2010-10-18 06:34:22 51°13.662 2°55.961 124.2 -999 219 -999
2010-10-18 06:34:27 51°13.662 2°55.961 124.3 0.1 197 -999
2010-10-18 06:34:32 51°13.662 2°55.961 124.4 0.1 181 -999
2010-10-18 06:34:37 51°13.662 2°55.961 124.5 0.1 13 -999
2010-10-18 06:34:42 51°13.662 2°55.961 124.5 0.1 352 -999
2010-10-18 06:34:47 51°13.662 2°55.961 124.4 -999 234 -999
2010-10-18 06:34:52 51°13.662 2°55.961 124.2 -999 198 -999
2010-10-18 06:34:57 51°13.662 2°55.961 124.1 -999 225 -999
2010-10-18 06:35:02 51°13.662 2°55.961 123.9 -999 233 -999
2010-10-18 06:35:07 51°13.662 2°55.961 123.9 -999 230 -999
2010-10-18 06:35:12 51°13.662 2°55.961 123.9 0.1 194 -999
2010-10-18 06:35:17 51°13.663 2°55.961 123.9 0.1 23 -999
2010-10-18 06:35:22 51°13.662 2°55.96 123.9 -999 314 -999
2010-10-18 06:35:27 51°13.662 2°55.96 124 -999 172 -999
2010-10-18 06:35:32 51°13.663 2°55.961 124.1 -999 204 -999
2010-10-18 06:35:37 51°13.662 2°55.96 124.2 0.1 193 -999
2010-10-18 06:35:42 51°13.662 2°55.96 124.4 0.1 187 -999
2010-10-18 06:35:47 51°13.663 2°55.961 124.5 0.1 158 -999
2010-10-18 06:35:52 51°13.662 2°55.961 124.7 -999 179 -999
2010-10-18 06:35:57 51°13.662 2°55.961 124.9 0.1 143 -999
2010-10-18 06:36:02 51°13.663 2°55.961 125 0.1 29 -999
2010-10-18 06:36:07 51°13.662 2°55.961 125.2 -999 35 -999
2010-10-18 06:36:12 51°13.662 2°55.961 125.3 -999 143 -999
2010-10-18 06:36:17 51°13.662 2°55.961 125.5 -999 115 -999
2010-10-18 06:36:22 51°13.662 2°55.961 125.7 -999 177 -999
2010-10-18 06:36:27 51°13.662 2°55.961 125.7 0.1 203 -999
2010-10-18 06:36:32 51°13.663 2°55.961 125.8 -999 8 -999
2010-10-18 06:36:37 51°13.663 2°55.961 125.8 -999 329 -999
2010-10-18 06:36:42 51°13.663 2°55.961 125.8 -999 190 -999
2010-10-18 06:36:47 51°13.663 2°55.961 125.7 -999 41 -999
2010-10-18 06:36:52 51°13.663 2°55.961 125.7 -999 259 -999
2010-10-18 06:36:57 51°13.663 2°55.96 125.7 -999 244 -999
2010-10-18 06:37:02 51°13.663 2°55.96 125.5 -999 3 -999
2010-10-18 06:37:07 51°13.663 2°55.96 125.4 -999 321 -999
2010-10-18 06:37:12 51°13.663 2°55.96 125.3 -999 290 -999
2010-10-18 06:37:17 51°13.663 2°55.96 125.2 -999 212 -999
2010-10-18 06:37:22 51°13.663 2°55.96 125.2 -999 196 -999
2010-10-18 06:37:27 51°13.663 2°55.96 125.2 -999 170 -999
2010-10-18 06:37:32 51°13.663 2°55.96 125.2 -999 48 -999
2010-10-18 06:37:37 51°13.663 2°55.96 125.2 -999 17 -999
2010-10-18 06:37:42 51°13.663 2°55.96 125.3 -999 62 -999
2010-10-18 06:37:47 51°13.663 2°55.96 125.3 -999 45 -999
2010-10-18 06:37:52 51°13.663 2°55.959 125.3 0.1 14 -999
2010-10-18 06:37:57 51°13.663 2°55.959 125.3 -999 9 -999
2010-10-18 06:38:02 51°13.663 2°55.959 125.3 0.1 13 -999
2010-10-18 06:38:07 51°13.663 2°55.959 125.3 -999 17 -999
2010-10-18 06:38:12 51°13.662 2°55.959 125.4 -999 186 -999
2010-10-18 06:38:17 51°13.662 2°55.96 125.4 -999 157 -999
2010-10-18 06:38:22 51°13.662 2°55.96 125.5 -999 19 -999
2010-10-18 06:38:27 51°13.662 2°55.96 125.5 -999 13 -999
2010-10-18 06:38:32 51°13.662 2°55.96 125.5 -999 190 -999
2010-10-18 06:38:37 51°13.662 2°55.96 125.5 -999 22 -999
2010-10-18 06:38:42 51°13.662 2°55.96 125.5 -999 333 -999
2010-10-18 06:38:47 51°13.662 2°55.96 125.5 -999 253 -999
2010-10-18 06:38:52 51°13.662 2°55.96 125.5 -999 218 -999
2010-10-18 06:38:57 51°13.662 2°55.96 125.3 -999 177 -999
2010-10-18 06:39:02 51°13.662 2°55.96 125.3 -999 200 -999
2010-10-18 06:39:07 51°13.662 2°55.96 125.1 -999 33 -999
2010-10-18 06:39:12 51°13.663 2°55.96 125 0.1 8 -999
2010-10-18 06:39:17 51°13.663 2°55.96 124.9 0.1 322 -999
2010-10-18 06:39:22 51°13.663 2°55.96 124.9 0.1 3 -999
2010-10-18 06:39:27 51°13.663 2°55.96 124.8 -999 344 -999
2010-10-18 06:39:32 51°13.663 2°55.96 124.7 -999 260 -999
2010-10-18 06:39:37 51°13.662 2°55.96 124.6 -999 199 -999
2010-10-18 06:39:42 51°13.663 2°55.96 124.6 -999 192 -999
2010-10-18 06:39:47 51°13.663 2°55.959 124.6 -999 200 -999
2010-10-18 06:39:52 51°13.663 2°55.96 124.6 -999 27 -999
2010-10-18 06:39:57 51°13.663 2°55.96 124.6 0.1 10 -999
2010-10-18 06:40:02 51°13.663 2°55.96 124.5 -999 336 -999
2010-10-18 06:40:07 51°13.662 2°55.96 124.5 -999 196 -999
2010-10-18 06:40:12 51°13.662 2°55.96 124.5 0.1 197 -999
2010-10-18 06:40:17 51°13.662 2°55.96 124.5 0.1 161 -999
2010-10-18 06:40:22 51°13.662 2°55.96 124.5 -999 159 -999
2010-10-18 06:40:27 51°13.662 2°55.96 124.6 -999 35 -999
2010-10-18 06:40:32 51°13.662 2°55.96 124.6 0.1 15 -999
2010-10-18 06:40:37 51°13.662 2°55.96 124.6 0.1 352 -999
2010-10-18 06:40:42 51°13.662 2°55.96 124.6 0.1 193 -999
2010-10-18 06:40:47 51°13.662 2°55.96 124.6 0.1 178 -999
2010-10-18 06:40:52 51°13.662 2°55.96 124.6 -999 50 -999
2010-10-18 06:40:57 51°13.662 2°55.96 124.6 -999 10 -999
2010-10-18 06:41:02 51°13.662 2°55.96 124.6 -999 219 -999
2010-10-18 06:41:07 51°13.662 2°55.96 124.7 0.1 176 -999
2010-10-18 06:41:12 51°13.662 2°55.96 124.7 -999 24 -999
2010-10-18 06:41:17 51°13.662 2°55.96 124.7 0.1 189 -999
2010-10-18 06:41:22 51°13.662 2°55.96 124.7 0.1 168 -999
2010-10-18 06:41:27 51°13.662 2°55.96 124.7 -999 275 -999
2010-10-18 06:41:32 51°13.662 2°55.96 124.7 0.1 207 -999
2010-10-18 06:41:37 51°13.662 2°55.96 124.7 0.1 6 -999
2010-10-18 06:41:42 51°13.662 2°55.96 124.7 0.1 355 -999
2010-10-18 06:41:47 51°13.662 2°55.96 124.7 -999 149 -999
2010-10-18 06:41:52 51°13.662 2°55.96 124.7 -999 356 -999
2010-10-18 06:41:57 51°13.662 2°55.96 124.7 0.1 174 -999
2010-10-18 06:42:02 51°13.662 2°55.96 124.7 -999 186 -999
2010-10-18 06:42:07 51°13.662 2°55.959 124.7 0.1 199 -999
2010-10-18 06:42:12 51°13.662 2°55.959 124.7 -999 174 -999
2010-10-18 06:42:17 51°13.662 2°55.959 124.7 -999 314 -999
2010-10-18 06:42:22 51°13.662 2°55.959 124.7 0.1 203 -999
2010-10-18 06:42:27 51°13.662 2°55.959 124.7 -999 1 -999
2010-10-18 06:42:32 51°13.662 2°55.959 124.8 -999 282 -999
2010-10-18 06:42:37 51°13.662 2°55.959 124.8 -999 192 -999
2010-10-18 06:42:42 51°13.662 2°55.959 124.8 0.1 181 -999
2010-10-18 06:42:47 51°13.662 2°55.959 124.7 0.1 10 -999
2010-10-18 06:42:52 51°13.662 2°55.959 124.6 0.1 233 -999
2010-10-18 06:42:57 51°13.662 2°55.959 124.5 -999 216 -999
2010-10-18 06:43:02 51°13.662 2°55.959 124.4 -999 21 -999
2010-10-18 06:43:07 51°13.663 2°55.959 124.3 0.1 7 -999
2010-10-18 06:43:12 51°13.663 2°55.959 124.2 -999 308 -999
2010-10-18 06:43:17 51°13.662 2°55.959 124.2 0.1 232 -999
2010-10-18 06:43:22 51°13.663 2°55.959 124.1 -999 350 -999
2010-10-18 06:43:27 51°13.663 2°55.959 124.1 -999 34 -999
2010-10-18 06:43:32 51°13.663 2°55.959 124 -999 -999 -999
2010-10-18 06:43:37 51°13.663 2°55.959 123.9 -999 228 -999
2010-10-18 06:43:42 51°13.663 2°55.959 123.9 -999 146 -999
2010-10-18 06:43:47 51°13.662 2°55.959 123.8 0.1 206 -999
2010-10-18 06:43:52 51°13.662 2°55.959 123.8 -999 151 -999
2010-10-18 06:43:57 51°13.662 2°55.959 123.8 -999 215 -999
2010-10-18 06:44:02 51°13.662 2°55.959 123.8 -999 269 -999
2010-10-18 06:44:07 51°13.662 2°55.959 123.8 0.1 7 -999
2010-10-18 06:44:12 51°13.662 2°55.959 123.9 -999 355 -999
2010-10-18 06:44:17 51°13.662 2°55.959 124.1 -999 180 -999
2010-10-18 06:44:22 51°13.662 2°55.959 124.2 -999 -999 -999
2010-10-18 06:44:27 51°13.662 2°55.959 124.3 0.1 8 -999
2010-10-18 06:44:32 51°13.662 2°55.959 124.4 -999 16 -999
2010-10-18 06:44:37 51°13.662 2°55.959 124.5 -999 338 -999
2010-10-18 06:44:42 51°13.662 2°55.959 124.6 0.1 159 -999
2010-10-18 06:44:47 51°13.662 2°55.959 124.6 -999 168 -999
2010-10-18 06:44:52 51°13.662 2°55.959 124.6 -999 66 -999
2010-10-18 06:44:57 51°13.663 2°55.959 124.6 0.1 23 -999
2010-10-18 06:45:02 51°13.662 2°55.959 124.6 -999 212 -999
2010-10-18 06:45:07 51°13.662 2°55.959 124.6 0.1 186 -999
2010-10-18 06:45:12 51°13.662 2°55.959 124.6 -999 194 -999
2010-10-18 06:45:17 51°13.663 2°55.959 124.6 -999 11 -999
2010-10-18 06:45:22 51°13.663 2°55.959 124.6 0.1 7 -999
2010-10-18 06:45:27 51°13.663 2°55.959 124.6 -999 111 -999
2010-10-18 06:45:32 51°13.663 2°55.959 124.5 -999 118 -999
2010-10-18 06:45:37 51°13.663 2°55.959 124.5 -999 326 -999
2010-10-18 06:45:42 51°13.663 2°55.959 124.5 -999 308 -999
2010-10-18 06:45:47 51°13.663 2°55.959 124.6 -999 207 -999
2010-10-18 06:45:52 51°13.663 2°55.959 124.6 -999 119 -999
2010-10-18 06:45:57 51°13.663 2°55.959 124.6 -999 333 -999
2010-10-18 06:46:02 51°13.663 2°55.959 124.6 -999 339 -999
2010-10-18 06:46:07 51°13.663 2°55.959 124.6 0.1 30 -999
2010-10-18 06:46:12 51°13.663 2°55.959 124.6 0.1 15 -999
2010-10-18 06:46:17 51°13.663 2°55.959 124.6 -999 4 -999
2010-10-18 06:46:22 51°13.663 2°55.96 124.6 0.1 31 -999
2010-10-18 06:46:27 51°13.663 2°55.959 124.6 0.1 357 -999
2010-10-18 06:46:32 51°13.663 2°55.96 124.6 -999 16 -999
2010-10-18 06:46:37 51°13.663 2°55.96 124.6 -999 40 -999
2010-10-18 06:46:42 51°13.662 2°55.96 124.6 -999 188 -999
2010-10-18 06:46:47 51°13.663 2°55.96 124.6 -999 233 -999
2010-10-18 06:46:52 51°13.663 2°55.96 124.6 -999 276 -999
2010-10-18 06:46:57 51°13.662 2°55.96 124.6 0.1 174 -999
2010-10-18 06:47:02 51°13.663 2°55.96 124.6 -999 151 -999
2010-10-18 06:47:07 51°13.663 2°55.96 124.6 -999 216 -999
2010-10-18 06:47:12 51°13.663 2°55.96 124.6 0.1 193 -999
2010-10-18 06:47:17 51°13.663 2°55.96 124.6 0.1 167 -999
2010-10-18 06:47:22 51°13.663 2°55.96 124.6 -999 159 -999
2010-10-18 06:47:27 51°13.663 2°55.96 124.6 -999 21 -999
2010-10-18 06:47:32 51°13.663 2°55.959 124.6 -999 359 -999
2010-10-18 06:47:37 51°13.663 2°55.959 124.6 -999 350 -999
2010-10-18 06:47:42 51°13.663 2°55.959 124.6 -999 195 -999
2010-10-18 06:47:47 51°13.663 2°55.959 124.6 -999 347 -999
2010-10-18 06:47:52 51°13.663 2°55.959 124.6 -999 283 -999
2010-10-18 06:47:57 51°13.663 2°55.959 124.6 -999 176 -999
2010-10-18 06:48:02 51°13.663 2°55.959 124.6 -999 357 -999
2010-10-18 06:48:07 51°13.663 2°55.959 124.5 0.1 4 -999
2010-10-18 06:48:12 51°13.663 2°55.959 124.5 -999 276 -999
2010-10-18 06:48:17 51°13.663 2°55.959 124.5 0.1 198 -999
2010-10-18 06:48:22 51°13.663 2°55.959 124.5 -999 185 -999
2010-10-18 06:48:27 51°13.663 2°55.959 124.6 -999 20 -999
2010-10-18 06:48:32 51°13.663 2°55.959 124.6 -999 350 -999
2010-10-18 06:48:35 51°13.663 2°55.959 124.6 -999 351 -999
2010-10-18 06:48:42 51°13.663 2°55.96 124.6 0.1 39 -999
2010-10-18 06:48:47 51°13.663 2°55.96 124.6 -999 14 -999
2010-10-18 06:48:53 51°13.663 2°55.96 124.6 -999 300 -999
2010-10-18 06:48:57 51°13.662 2°55.96 124.6 -999 262 -999
2010-10-18 06:49:02 51°13.662 2°55.96 124.6 -999 233 -999
2010-10-18 06:49:07 51°13.662 2°55.96 124.6 0.1 214 -999
2010-10-18 06:49:12 51°13.662 2°55.96 124.6 -999 222 -999
2010-10-18 06:49:17 51°13.662 2°55.96 124.6 -999 83 -999
2010-10-18 06:49:22 51°13.662 2°55.96 124.6 -999 87 8.9
2010-10-18 06:49:27 51°13.662 2°55.96 124.6 -999 185 8.9
2010-10-18 06:49:32 51°13.662 2°55.96 124.6 -999 200 8.9
2010-10-18 06:49:37 51°13.662 2°55.96 124.6 -999 273 8.9
2010-10-18 06:49:41 51°13.662 2°55.96 124.6 0.1 208 8.9
2010-10-18 06:49:46 51°13.662 2°55.96 124.6 -999 195 8.9
2010-10-18 06:49:51 51°13.662 2°55.96 124.6 -999 206 8.9
2010-10-18 06:49:56 51°13.662 2°55.96 124.6 -999 344 8.9
2010-10-18 06:50:01 51°13.662 2°55.96 124.6 0.1 359 8.9
2010-10-18 06:50:05 51°13.662 2°55.96 124.6 -999 273 8.9
2010-10-18 06:50:10 51°13.662 2°55.96 124.6 -999 190 8.9
2010-10-18 06:50:15 51°13.662 2°55.96 124.6 0.1 191 8.9
2010-10-18 06:50:20 51°13.662 2°55.96 124.6 -999 170 8.9
2010-10-18 06:50:25 51°13.662 2°55.96 124.6 -999 182 8.9
2010-10-18 06:50:29 51°13.662 2°55.96 124.6 0.1 32 8.9
2010-10-18 06:50:34 51°13.662 2°55.96 124.6 0.1 11 8.9
2010-10-18 06:50:39 51°13.662 2°55.96 124.6 -999 41 8.9
2010-10-18 06:50:44 51°13.662 2°55.96 124.6 0.1 6 8.9
2010-10-18 06:50:49 51°13.662 2°55.96 124.6 0.1 7 8.9
2010-10-18 06:50:54 51°13.662 2°55.96 124.6 0.1 12 8.9
2010-10-18 06:50:59 51°13.662 2°55.96 124.6 -999 40 -999
2010-10-18 06:51:04 51°13.662 2°55.96 124.6 0.1 1 9
2010-10-18 06:51:09 51°13.662 2°55.96 124.6 0.1 10 -999
2010-10-18 06:51:15 51°13.662 2°55.96 124.6 -999 190 -999
2010-10-18 06:51:21 51°13.662 2°55.96 124.6 0.1 207 8.9
2010-10-18 06:51:25 51°13.662 2°55.96 124.6 0.1 215 9
2010-10-18 06:51:30 51°13.662 2°55.96 124.6 0.1 197 9
2010-10-18 06:51:35 51°13.662 2°55.96 124.6 0.1 193 9
2010-10-18 06:51:41 51°13.663 2°55.96 124.6 -999 59 8.9
2010-10-18 06:51:45 51°13.663 2°55.96 124.6 0.1 21 9
2010-10-18 06:51:50 51°13.663 2°55.96 124.6 0.1 10 8.9
2010-10-18 06:51:55 51°13.663 2°55.96 124.4 0.1 356 8.9
2010-10-18 06:52:00 51°13.663 2°55.96 124.3 -999 324 8.9
2010-10-18 06:52:05 51°13.663 2°55.96 124.2 -999 350 8.9
2010-10-18 06:52:09 51°13.663 2°55.96 124.2 -999 253 8.9
2010-10-18 06:52:14 51°13.662 2°55.96 124.2 -999 189 8.9
2010-10-18 06:52:19 51°13.663 2°55.96 124.2 -999 170 9
2010-10-18 06:52:24 51°13.663 2°55.96 124.2 -999 50 9
2010-10-18 06:52:29 51°13.663 2°55.96 124.2 -999 83 8.9
2010-10-18 06:52:33 51°13.663 2°55.96 124.2 -999 50 9
2010-10-18 06:52:38 51°13.663 2°55.96 124.2 0.1 12 9
2010-10-18 06:52:44 51°13.663 2°55.96 124.3 -999 19 9
2010-10-18 06:52:49 51°13.663 2°55.96 124.5 0.1 201 9
2010-10-18 06:52:53 51°13.663 2°55.96 124.5 0.1 176 9
2010-10-18 06:52:58 51°13.663 2°55.96 124.5 0.1 21 9
2010-10-18 06:53:03 51°13.663 2°55.96 124.5 0.1 5 8.9
2010-10-18 06:53:09 51°13.663 2°55.96 124.4 -999 342 9
2010-10-18 06:53:14 51°13.663 2°55.96 124.4 -999 198 9
2010-10-18 06:53:18 51°13.663 2°55.96 124.4 -999 149 9
2010-10-18 06:53:24 51°13.663 2°55.961 124.4 0.1 16 8.9
2010-10-18 06:53:29 51°13.663 2°55.96 124.3 0.1 325 9
2010-10-18 06:53:33 51°13.663 2°55.961 124.3 -999 226 9
2010-10-18 06:53:38 51°13.663 2°55.961 124.3 -999 56 9
2010-10-18 06:53:44 51°13.663 2°55.961 124.3 -999 345 8.9
2010-10-18 06:53:48 51°13.663 2°55.961 124.4 -999 316 9
2010-10-18 06:53:53 51°13.663 2°55.961 124.4 -999 345 9
2010-10-18 06:53:58 51°13.663 2°55.961 124.4 0.1 188 9
2010-10-18 06:54:03 51°13.663 2°55.961 124.5 -999 87 9
2010-10-18 06:54:08 51°13.663 2°55.961 124.5 -999 297 9
2010-10-18 06:54:13 51°13.663 2°55.961 124.5 0.1 180 9
2010-10-18 06:54:18 51°13.663 2°55.961 124.5 -999 223 9
2010-10-18 06:54:23 51°13.663 2°55.961 124.5 -999 330 9
2010-10-18 06:54:28 51°13.663 2°55.961 124.5 -999 30 9
2010-10-18 06:54:33 51°13.663 2°55.961 124.5 0.1 211 9
2010-10-18 06:54:39 51°13.663 2°55.961 124.5 -999 172 9
2010-10-18 06:54:43 51°13.663 2°55.961 124.5 -999 155 9
2010-10-18 06:54:48 51°13.663 2°55.961 124.5 -999 19 9
2010-10-18 06:54:54 51°13.663 2°55.961 124.6 -999 241 9
2010-10-18 06:54:58 51°13.663 2°55.961 124.7 0.1 183 9
2010-10-18 06:55:03 51°13.663 2°55.961 124.7 -999 298 9
2010-10-18 06:55:09 51°13.663 2°55.961 124.8 -999 1 9
2010-10-18 06:55:14 51°13.663 2°55.961 124.8 -999 209 9
2010-10-18 06:55:18 51°13.663 2°55.961 124.8 -999 94 9
2010-10-18 06:55:23 51°13.663 2°55.961 124.8 0.1 341 9
2010-10-18 06:55:28 51°13.663 2°55.961 124.7 0.1 298 9
2010-10-18 06:55:34 51°13.663 2°55.961 124.7 -999 294 9
2010-10-18 06:55:38 51°13.664 2°55.961 124.7 0.1 355 9
2010-10-18 06:55:44 51°13.664 2°55.961 124.7 -999 102 -999
2010-10-18 06:55:50 51°13.664 2°55.961 124.6 -999 162 -999
2010-10-18 06:55:54 51°13.663 2°55.961 124.6 -999 358 9
2010-10-18 06:55:59 51°13.663 2°55.961 124.6 -999 303 9
2010-10-18 06:56:04 51°13.663 2°55.961 124.5 -999 180 9
2010-10-18 06:56:09 51°13.663 2°55.961 124.5 0.1 206 9
2010-10-18 06:56:14 51°13.663 2°55.961 124.5 0.1 202 9
2010-10-18 06:56:18 51°13.663 2°55.961 124.5 -999 89 9
2010-10-18 06:56:24 51°13.663 2°55.961 124.5 -999 204 9
2010-10-18 06:56:28 51°13.663 2°55.961 124.5 0.1 189 9
2010-10-18 06:56:34 51°13.663 2°55.96 124.5 -999 121 9
2010-10-18 06:56:38 51°13.663 2°55.96 124.5 -999 94 9
2010-10-18 06:56:43 51°13.663 2°55.961 124.7 -999 358 9
2010-10-18 06:56:49 51°13.663 2°55.961 124.9 -999 167 9
2010-10-18 06:56:54 51°13.663 2°55.961 124.9 0.1 144 9.1
2010-10-18 06:56:58 51°13.663 2°55.961 125.1 0.1 161 9
2010-10-18 06:57:04 51°13.663 2°55.961 125.4 0.1 137 9
2010-10-18 06:57:09 51°13.662 2°55.961 125.8 0.1 151 9
2010-10-18 06:57:14 51°13.662 2°55.961 126.4 0.1 147 9.1
2010-10-18 06:57:18 51°13.662 2°55.962 126.9 0.1 122 9
2010-10-18 06:57:23 51°13.662 2°55.962 127.1 -999 42 9.1
2010-10-18 06:57:29 51°13.662 2°55.962 127.3 -999 8 9.1
2010-10-18 06:57:34 51°13.662 2°55.962 127.1 0.1 193 9
2010-10-18 06:57:38 51°13.662 2°55.962 126.8 0.1 185 9.1
2010-10-18 06:57:44 51°13.662 2°55.962 126.8 -999 151 9.1
2010-10-18 06:57:49 51°13.662 2°55.962 126.8 0.1 201 9.1
2010-10-18 06:57:54 51°13.662 2°55.962 126.8 0.1 25 9.1
2010-10-18 06:57:58 51°13.662 2°55.962 126.8 0.2 24 9
2010-10-18 06:58:03 51°13.662 2°55.96 126.8 0.1 344 9.1
2010-10-18 06:58:09 51°13.662 2°55.96 126.9 0.1 256 9.1
2010-10-18 06:58:14 51°13.662 2°55.961 127.1 -999 235 9.1
2010-10-18 06:58:18 51°13.662 2°55.961 127.1 -999 5 9.2
2010-10-18 06:58:23 51°13.662 2°55.961 127.1 0.1 37 9.1
2010-10-18 06:58:29 51°13.662 2°55.961 127.1 0.1 10 9.1
2010-10-18 06:58:34 51°13.662 2°55.961 127.1 -999 339 9.1
2010-10-18 06:58:38 51°13.662 2°55.961 127.1 0.1 4 9.1
2010-10-18 06:58:44 51°13.662 2°55.962 127.2 -999 -999 9.1
2010-10-18 06:58:49 51°13.662 2°55.961 127.2 -999 185 9.1
2010-10-18 06:58:54 51°13.661 2°55.962 127.2 0.1 174 9.1
2010-10-18 06:58:58 51°13.661 2°55.961 127.2 0.1 188 9.1
2010-10-18 06:59:03 51°13.661 2°55.961 127.2 0.1 208 9.1
2010-10-18 06:59:09 51°13.661 2°55.961 127.2 0.1 221 9.1
2010-10-18 06:59:14 51°13.661 2°55.961 127.2 -999 168 9.1
2010-10-18 06:59:18 51°13.661 2°55.961 127.2 -999 112 9.1
2010-10-18 06:59:24 51°13.661 2°55.961 127.2 0.1 175 9.1
2010-10-18 06:59:29 51°13.661 2°55.961 127.2 0.1 201 9.1
2010-10-18 06:59:34 51°13.661 2°55.961 127.2 -999 182 9.1
2010-10-18 06:59:38 51°13.661 2°55.961 127.2 -999 24 9.1
2010-10-18 06:59:43 51°13.661 2°55.961 127.2 0.1 358 9
2010-10-18 06:59:49 51°13.661 2°55.962 127 0.1 31 9
2010-10-18 06:59:54 51°13.661 2°55.962 126.4 0.1 61 9.1
2010-10-18 06:59:58 51°13.661 2°55.962 125.7 0.1 53 9
2010-10-18 07:00:04 51°13.661 2°55.962 124.8 0.1 219 9
2010-10-18 07:00:08 51°13.661 2°55.962 123.9 0.1 186 9.1
2010-10-18 07:00:14 51°13.661 2°55.962 123.2 0.1 181 9
2010-10-18 07:00:18 51°13.661 2°55.962 122.5 0.1 194 -999
2010-10-18 07:00:23 51°13.661 2°55.962 121.7 -999 77 9
2010-10-18 07:00:28 51°13.661 2°55.962 121.1 -999 243 9
2010-10-18 07:00:34 51°13.661 2°55.962 120.4 0.1 205 9
2010-10-18 07:00:38 51°13.661 2°55.962 119.3 0.1 204 9.3
2010-10-18 07:00:43 51°13.66 2°55.962 118.4 0.2 193 9.1
2010-10-18 07:00:49 51°13.66 2°55.962 117.7 0.2 191 9.1
2010-10-18 07:00:54 51°13.66 2°55.962 116.8 0.2 191 9.1
2010-10-18 07:00:58 51°13.66 2°55.962 115.7 0.1 195 9.1
2010-10-18 07:01:04 51°13.66 2°55.962 114.6 0.1 202 9.1
2010-10-18 07:01:09 51°13.66 2°55.962 113.6 0.1 193 9.1
2010-10-18 07:01:14 51°13.66 2°55.961 112.8 0.1 199 9.1
2010-10-18 07:01:18 51°13.66 2°55.961 111.6 0.1 221 9.1
2010-10-18 07:01:23 51°13.66 2°55.961 110.9 0.2 290 9.1
2010-10-18 07:01:28 51°13.66 2°55.96 110.2 0.6 295 9.2
2010-10-18 07:01:34 51°13.661 2°55.958 109.8 0.9 290 9.2
2010-10-18 07:01:38 51°13.662 2°55.956 109.7 1.1 295 9.2
2010-10-18 07:01:43 51°13.662 2°55.953 109.7 1.6 295 9.2
2010-10-18 07:01:49 51°13.664 2°55.948 109.9 2 294 9
2010-10-18 07:01:54 51°13.666 2°55.943 110.1 2.5 295 -999
2010-10-18 07:02:00 51°13.668 2°55.935 109.8 3 294 -999
2010-10-18 07:02:06 51°13.671 2°55.926 109 3.5 292 -999
2010-10-18 07:02:11 51°13.673 2°55.918 108.6 3.9 291 -999
2010-10-18 07:02:17 51°13.675 2°55.907 107.9 4.2 290 -999
2010-10-18 07:02:22 51°13.677 2°55.898 107.2 4.4 290 -999
2010-10-18 07:02:27 51°13.678 2°55.889 106.3 4.5 287 -999
2010-10-18 07:02:32 51°13.679 2°55.879 105.6 3.5 286 -999
2010-10-18 07:02:37 51°13.68 2°55.869 104.9 4.5 286 -999
2010-10-18 07:02:42 51°13.683 2°55.859 103.8 4.6 286 -999
2010-10-18 07:02:47 51°13.686 2°55.85 102.5 4.5 286 -999
2010-10-18 07:02:52 51°13.687 2°55.841 101.4 4.3 285 -999
2010-10-18 07:02:57 51°13.688 2°55.832 100.5 4.2 283 -999
2010-10-18 07:03:02 51°13.689 2°55.823 99.5 4.1 283 -999
2010-10-18 07:03:05 51°13.69 2°55.818 98.6 1.5 283 -999
2010-10-18 07:03:12 51°13.691 2°55.805 97.4 3.4 281 -999
2010-10-18 07:03:17 51°13.694 2°55.795 96.2 3.9 281 -999
2010-10-18 07:03:22 51°13.696 2°55.786 94.8 3.8 281 -999
2010-10-18 07:03:27 51°13.696 2°55.779 93.1 3.6 278 -999
2010-10-18 07:03:32 51°13.696 2°55.772 91.3 3.4 275 -999
2010-10-18 07:03:37 51°13.696 2°55.765 89.4 3.3 276 -999
2010-10-18 07:03:42 51°13.696 2°55.759 87.9 3.1 276 -999
2010-10-18 07:03:47 51°13.696 2°55.753 86.4 2.8 274 14.6
2010-10-18 07:03:52 51°13.696 2°55.748 84.4 2.3 273 14.6
2010-10-18 07:03:57 51°13.696 2°55.745 82.5 1.6 270 14.4
2010-10-18 07:04:02 51°13.697 2°55.743 79.9 1 274 14.5
2010-10-18 07:04:06 51°13.697 2°55.742 76 0.7 279 14.4
2010-10-18 07:04:11 51°13.697 2°55.74 70.4 0.6 288 14.4
2010-10-18 07:04:16 51°13.698 2°55.739 66.8 0.4 314 14.4
2010-10-18 07:04:21 51°13.698 2°55.739 62.7 0.4 338 14.4
2010-10-18 07:04:25 51°13.698 2°55.739 55.2 -999 148 14.2
2010-10-18 07:04:25 51°13.698 2°55.739 58.9 0.3 346 14.3
2010-10-18 07:04:36 51°13.7 2°55.737 50.5 0.1 10 14
2010-10-18 07:04:40 51°13.702 2°55.737 47.4 0.6 14 13.9
2010-10-18 07:04:46 51°13.703 2°55.738 43.5 0.8 20 14
2010-10-18 07:04:50 51°13.705 2°55.739 39.3 1 19 14
2010-10-18 07:04:55 51°13.706 2°55.74 34.9 1.2 19 14
2010-10-18 07:05:00 51°13.708 2°55.742 30.1 1.4 17 14
2010-10-18 07:05:05 51°13.71 2°55.743 25.1 1.6 14 14.4
2010-10-18 07:05:10 51°13.713 2°55.743 19.7 1.8 10 14.8
2010-10-18 07:05:14 51°13.715 2°55.744 13.9 1.9 5 14.7
2010-10-18 07:05:19 51°13.718 2°55.744 7.7 2.1 359 14.4
2010-10-18 07:05:24 51°13.721 2°55.743 1.5 2.2 353 14
2010-10-18 07:05:29 51°13.724 2°55.742 355.1 2.5 348 13.6
2010-10-18 07:05:34 51°13.728 2°55.74 348.8 2.7 344 13.2
2010-10-18 07:05:38 51°13.731 2°55.738 342.4 2.2 340 13
2010-10-18 07:05:43 51°13.734 2°55.735 336 3.1 332 12.4
2010-10-18 07:05:49 51°13.739 2°55.73 330.3 3.7 329 12.4
2010-10-18 07:05:54 51°13.744 2°55.725 326.7 4.1 328 12.1
2010-10-18 07:05:58 51°13.748 2°55.72 329.2 -999 324 13
2010-10-18 07:05:58 51°13.748 2°55.72 324.9 -999 143 12.9
2010-10-18 07:05:58 51°13.748 2°55.72 328 -999 144 13
2010-10-18 07:05:58 51°13.748 2°55.72 323.3 0.1 144 11.8
2010-10-18 07:05:58 51°13.748 2°55.72 323.2 -999 144 12.7
2010-10-18 07:05:58 51°13.748 2°55.72 323.7 -999 302 11.8
2010-10-18 07:05:58 51°13.748 2°55.72 330.4 -999 323 13
2010-10-18 07:05:58 51°13.748 2°55.72 331.9 -999 144 13
2010-10-18 07:05:58 51°13.748 2°55.72 322.9 -999 323 12.8
2010-10-18 07:05:58 51°13.748 2°55.72 327.2 -999 146 13.1
2010-10-18 07:05:58 51°13.748 2°55.72 326.2 -999 324 13.1
2010-10-18 07:05:58 51°13.748 2°55.72 323.1 -999 324 12.3
2010-10-18 07:05:58 51°13.748 2°55.72 324.6 3.7 324 11.7
2010-10-18 07:07:03 51°13.748 2°55.72 332.5 -999 142 12.8
2010-10-18 07:07:08 51°13.748 2°55.72 333.2 -999 324 12
2010-10-18 07:07:14 51°13.748 2°55.72 334.1 -999 145 12.4
2010-10-18 07:07:18 51°13.748 2°55.72 334.7 -999 144 12.6
2010-10-18 07:07:24 51°13.748 2°55.72 335.4 -999 324 12.3
2010-10-18 07:07:29 51°13.748 2°55.72 335.5 -999 323 11.8
2010-10-18 07:07:34 51°13.748 2°55.72 335.9 -999 144 12.2
2010-10-18 07:07:38 51°13.748 2°55.72 336.1 -999 130 12.3
2010-10-18 07:07:44 51°13.748 2°55.72 336.1 -999 324 12.3
2010-10-18 07:07:48 51°13.748 2°55.72 336.1 -999 144 12.2
2010-10-18 07:07:54 51°13.748 2°55.72 336.1 -999 143 12.5
2010-10-18 07:07:58 51°13.748 2°55.72 335.6 -999 324 12.5
2010-10-18 07:08:03 51°13.748 2°55.72 335.5 -999 323 12
2010-10-18 07:08:09 51°13.748 2°55.72 335.3 -999 144 11.6
2010-10-18 07:08:14 51°13.748 2°55.72 334.7 -999 326 11.8
2010-10-18 07:08:18 51°13.748 2°55.72 334.8 -999 324 11.6
2010-10-18 07:08:23 51°13.748 2°55.72 334.9 -999 144 11.2
2010-10-18 07:08:28 51°13.748 2°55.72 334.6 -999 143 11.3
2010-10-18 07:08:34 51°13.748 2°55.72 334.7 -999 324 11.4
2010-10-18 07:08:38 51°13.748 2°55.72 334.7 -999 323 11.3
2010-10-18 07:08:43 51°13.748 2°55.72 334.2 -999 144 11.4
2010-10-18 07:08:49 51°13.748 2°55.72 334.1 -999 325 11.3
2010-10-18 07:08:53 51°13.748 2°55.72 334.1 -999 324 11.5
2010-10-18 07:08:58 51°14.116 2°55.419 333.8 3.3 332 11.4
2010-10-18 07:09:04 51°14.126 2°55.407 333.3 7.9 332 11.4
2010-10-18 07:09:08 51°14.133 2°55.401 332.5 7.6 332 11.5
2010-10-18 07:09:14 51°14.145 2°55.391 331.7 7.6 331 11.6
2010-10-18 07:09:19 51°14.154 2°55.383 331.4 7.8 331 11.8
2010-10-18 07:09:24 51°14.165 2°55.375 331.1 8.2 330 11.5
2010-10-18 07:09:29 51°14.175 2°55.366 330.6 8.5 331 11.6
2010-10-18 07:09:34 51°14.186 2°55.357 331.1 8.7 332 11.6
2010-10-18 07:09:38 51°14.194 2°55.349 331.4 8.9 331 11.6
2010-10-18 07:09:44 51°14.208 2°55.337 330.8 9.2 330 11.6
2010-10-18 07:09:48 51°14.217 2°55.329 330.5 9.4 332 11.6
2010-10-18 07:09:54 51°14.231 2°55.317 331.1 9.6 331 11.6
2010-10-18 07:09:58 51°14.24 2°55.308 330.6 9.8 330 11.4
2010-10-18 07:10:04 51°14.254 2°55.296 330.5 9.9 331 11.5
2010-10-18 07:10:09 51°14.266 2°55.285 330.6 10.1 330 11.7
2010-10-18 07:10:14 51°14.279 2°55.273 330.6 10.2 331 11.5
2010-10-18 07:10:18 51°14.289 2°55.264 330.8 10.5 330 11.4
2010-10-18 07:10:24 51°14.304 2°55.25 329.8 10.6 329 11.5
2010-10-18 07:10:28 51°14.315 2°55.241 329.5 10.7 330 11.6
2010-10-18 07:10:34 51°14.331 2°55.226 329.9 10.8 330 11.3
2010-10-18 07:10:38 51°14.341 2°55.216 329.8 10.9 329 11.3
2010-10-18 07:10:43 51°14.354 2°55.204 330.1 11 330 11.2
2010-10-18 07:10:48 51°14.368 2°55.192 331 11.2 331 11.3
2010-10-18 07:10:54 51°14.384 2°55.177 330.6 11.2 329 11.2
2010-10-18 07:10:58 51°14.395 2°55.167 330 11.4 329 11.2
2010-10-18 07:11:03 51°14.409 2°55.154 329.9 11.5 330 11.5
2010-10-18 07:11:09 51°14.425 2°55.138 329.2 11.6 328 11.6
2010-10-18 07:11:14 51°14.439 2°55.124 329.1 11.6 329 11.6
2010-10-18 07:11:18 51°14.45 2°55.113 328.8 11.7 328 11.6
2010-10-18 07:11:24 51°14.466 2°55.096 328.2 11.7 328 11.9
2010-10-18 07:11:29 51°14.48 2°55.082 327.7 11.7 327 12
2010-10-18 07:11:34 51°14.494 2°55.068 327.3 11.8 327 12.1
2010-10-18 07:11:38 51°14.505 2°55.057 327.6 12 328 12.2
2010-10-18 07:11:43 51°14.52 2°55.043 327.7 12 329 12.2
2010-10-18 07:11:49 51°14.537 2°55.026 327.2 12.1 328 12.5
2010-10-18 07:11:54 51°14.551 2°55.013 327.1 12.2 329 12.7
2010-10-18 07:11:58 51°14.563 2°55.002 327.1 12.2 329 12.7
2010-10-18 07:12:04 51°14.58 2°54.985 326.7 12.4 329 12.6
2010-10-18 07:12:09 51°14.595 2°54.971 326.3 12.3 329 12.6
2010-10-18 07:12:14 51°14.609 2°54.956 326.2 12.4 328 12.5
2010-10-18 07:12:18 51°14.621 2°54.944 325.7 12.3 327 12.6
2010-10-18 07:12:23 51°14.635 2°54.929 325 12.3 326 12.7
2010-10-18 07:12:29 51°14.653 2°54.911 324.3 12.5 326 12.6
2010-10-18 07:12:34 51°14.667 2°54.895 323.8 12.6 326 12.7
2010-10-18 07:12:38 51°14.679 2°54.882 323.5 12.6 325 12.8
2010-10-18 07:12:44 51°14.695 2°54.863 323.3 12.4 324 12.8
2010-10-18 07:12:49 51°14.708 2°54.845 320.8 12.4 319 12.8
2010-10-18 07:12:54 51°14.72 2°54.825 316 12.2 314 12.9
2010-10-18 07:12:58 51°14.728 2°54.808 310.1 12 309 12.8
2010-10-18 07:13:04 51°14.738 2°54.782 304.1 11.8 302 13.1
2010-10-18 07:13:09 51°14.745 2°54.759 298.1 11.6 297 13
2010-10-18 07:13:14 51°14.75 2°54.735 292.1 11.5 291 12.7
2010-10-18 07:13:18 51°14.754 2°54.715 286.8 11.4 287 12.4
2010-10-18 07:13:23 51°14.757 2°54.691 282.4 11.4 282 12.8
2010-10-18 07:13:29 51°14.759 2°54.661 278 11.2 277 12.7
2010-10-18 07:13:34 51°14.758 2°54.637 272.3 11.1 270 13.1
2010-10-18 07:13:38 51°14.757 2°54.618 266 10.9 265 12.9
2010-10-18 07:13:44 51°14.753 2°54.59 259.6 10.8 257 12.8
2010-10-18 07:13:49 51°14.747 2°54.568 253.4 10.7 251 12.9
2010-10-18 07:13:54 51°14.741 2°54.547 246.9 10.6 244 12.7
2010-10-18 07:13:58 51°14.735 2°54.531 240.5 10.5 238 12.3
2010-10-18 07:14:03 51°14.725 2°54.513 234.2 10.5 231 11.3
2010-10-18 07:14:09 51°14.713 2°54.493 228 10.4 226 11.3
2010-10-18 07:14:14 51°14.702 2°54.478 222 10.6 221 11.4
2010-10-18 07:14:18 51°14.692 2°54.466 219.4 11.1 218 11.3
2010-10-18 07:14:23 51°14.682 2°54.449 221.7 10.8 224 11.3
2010-10-18 07:14:29 51°14.669 2°54.429 222.3 10.8 224 11.4
2010-10-18 07:14:34 51°14.659 2°54.411 223.6 11 228 11.3
2010-10-18 07:14:38 51°14.651 2°54.396 225.6 11 227 11.3
2010-10-18 07:14:44 51°14.64 2°54.373 227.5 11 231 11.3
2010-10-18 07:14:49 51°14.63 2°54.354 229.1 11.2 231 11.3
2010-10-18 07:14:54 51°14.621 2°54.334 230.9 11.1 234 11.2
2010-10-18 07:14:58 51°14.613 2°54.319 230.1 11.1 231 11.3
2010-10-18 07:15:04 51°14.602 2°54.296 229.9 11.2 233 11.3
2010-10-18 07:15:09 51°14.592 2°54.276 230.2 11.3 231 11.2
2010-10-18 07:15:14 51°14.582 2°54.257 230.2 11.3 232 11.1
2010-10-18 07:15:18 51°14.574 2°54.241 230.2 11.3 231 11.1
2010-10-18 07:15:24 51°14.563 2°54.217 230.3 11.3 232 11.1
2010-10-18 07:15:28 51°14.555 2°54.202 230.3 11.3 231 11.1
2010-10-18 07:15:34 51°14.544 2°54.178 230.2 11.4 232 11
2010-10-18 07:15:38 51°14.536 2°54.162 230.3 11.3 231 11.1
2010-10-18 07:15:43 51°14.526 2°54.143 230.4 11.3 231 11.1
2010-10-18 07:15:49 51°14.515 2°54.119 230 11.3 233 11.1
2010-10-18 07:15:54 51°14.505 2°54.099 229.8 11.3 231 11.2
2010-10-18 07:15:58 51°14.498 2°54.084 230.1 11.3 233 11.1
2010-10-18 07:16:04 51°14.486 2°54.06 229.8 11.4 231 11
2010-10-18 07:16:09 51°14.476 2°54.04 230.1 11.4 232 11
2010-10-18 07:16:14 51°14.466 2°54.021 229.8 11.4 231 10.8
2010-10-18 07:16:18 51°14.458 2°54.006 229.8 11.4 231 11.2
2010-10-18 07:16:23 51°14.448 2°53.986 230 11.3 231 10.9
2010-10-18 07:16:29 51°14.437 2°53.962 229.8 11.3 232 10.8
2010-10-18 07:16:34 51°14.427 2°53.943 229.6 11.3 230 10.9
2010-10-18 07:16:38 51°14.42 2°53.927 229.4 11.3 232 10.7
2010-10-18 07:16:43 51°14.41 2°53.908 229.4 11.3 230 10.8
2010-10-18 07:16:49 51°14.398 2°53.885 229.4 11.3 231 10.9
2010-10-18 07:16:54 51°14.388 2°53.865 229.7 11.3 231 10.8
2010-10-18 07:16:58 51°14.38 2°53.85 229.4 11.3 230 10.8
2010-10-18 07:17:04 51°14.368 2°53.827 229.6 11.3 231 10.9
2010-10-18 07:17:09 51°14.358 2°53.807 229.4 11.3 232 10.7
2010-10-18 07:17:14 51°14.348 2°53.788 229.7 11.2 231 10.8
2010-10-18 07:17:18 51°14.34 2°53.773 229.6 11.3 230 10.8
2010-10-18 07:17:23 51°14.331 2°53.753 229.6 11.2 231 10.8
2010-10-18 07:17:29 51°14.319 2°53.73 229.6 11.3 231 10.8
2010-10-18 07:17:34 51°14.309 2°53.71 229.6 11.3 232 10.8
2010-10-18 07:17:38 51°14.301 2°53.695 230 11.3 231 10.8
2010-10-18 07:17:44 51°14.289 2°53.671 229.6 11.4 233 10.7
2010-10-18 07:17:48 51°14.281 2°53.656 230 11.4 229 10.8
2010-10-18 07:17:54 51°14.269 2°53.632 229.8 11.4 232 10.9
2010-10-18 07:17:58 51°14.261 2°53.617 230 11.4 229 11
2010-10-18 07:18:03 51°14.251 2°53.597 229.6 11.5 231 11
2010-10-18 07:18:09 51°14.239 2°53.574 229.6 11.4 230 10.9
2010-10-18 07:18:14 51°14.229 2°53.555 229.7 11.3 231 10.9
2010-10-18 07:18:18 51°14.221 2°53.539 229.6 11.4 231 10.9
2010-10-18 07:18:23 51°14.212 2°53.519 229.9 11.4 231 10.9
2010-10-18 07:18:29 51°14.199 2°53.496 229.9 11.4 230 11.2
2010-10-18 07:18:34 51°14.19 2°53.476 229.8 11.4 232 10.9
2010-10-18 07:18:38 51°14.181 2°53.461 229.7 11.5 230 11
2010-10-18 07:18:44 51°14.17 2°53.438 229.7 11.4 232 10.9
2010-10-18 07:18:49 51°14.16 2°53.418 229.8 11.4 230 11
2010-10-18 07:18:54 51°14.15 2°53.398 229.4 11.4 232 10.9
2010-10-18 07:18:58 51°14.142 2°53.383 229.6 11.4 230 11.1
2010-10-18 07:19:03 51°14.132 2°53.364 229.5 11.4 231 11
2010-10-18 07:19:09 51°14.12 2°53.34 229.4 11.4 231 11
2010-10-18 07:19:14 51°14.11 2°53.321 229.6 11.3 231 11.1
2010-10-18 07:19:18 51°14.103 2°53.304 231 11.3 234 11.1
2010-10-18 07:19:24 51°14.092 2°53.28 232.2 11.4 234 11
2010-10-18 07:19:29 51°14.083 2°53.26 232.8 11.4 235 11.1
2010-10-18 07:19:34 51°14.074 2°53.239 233.5 11.4 235 11.3
2010-10-18 07:19:38 51°14.067 2°53.222 234.5 11.3 237 11.1
2010-10-18 07:19:43 51°14.058 2°53.201 234.5 11.4 236 11.2
2010-10-18 07:19:49 51°14.047 2°53.176 235 11.4 236 11.2
2010-10-18 07:19:54 51°14.038 2°53.156 235.2 11.5 235 11.3
2010-10-18 07:19:58 51°14.031 2°53.139 235.2 11.5 236 11.3
2010-10-18 07:20:04 51°14.021 2°53.114 235.1 11.4 236 11.3
2010-10-18 07:20:09 51°14.013 2°53.092 235 11.3 238 11.3
2010-10-18 07:20:14 51°14.004 2°53.071 235.2 11.3 237 11.3
2010-10-18 07:20:18 51°13.997 2°53.055 235 11.4 237 11.3
2010-10-18 07:20:23 51°13.988 2°53.034 235 11.4 235 11.4
2010-10-18 07:20:29 51°13.978 2°53.009 234.7 11.4 237 11.3
2010-10-18 07:20:34 51°13.968 2°52.988 234.6 11.4 234 11.4
2010-10-18 07:20:38 51°13.962 2°52.971 235.1 11.4 237 11.3
2010-10-18 07:20:43 51°13.953 2°52.95 234.8 11.4 235 11.5
2010-10-18 07:20:49 51°13.942 2°52.925 234.9 11.4 237 11.4
2010-10-18 07:20:54 51°13.933 2°52.904 234.6 11.4 236 11.4
2010-10-18 07:20:58 51°13.926 2°52.887 234.6 11.4 236 11.5
2010-10-18 07:21:04 51°13.915 2°52.862 234.5 11.4 236 11.4
2010-10-18 07:21:09 51°13.906 2°52.842 234.5 11.4 235 11.4
2010-10-18 07:21:14 51°13.898 2°52.821 234.5 11.4 236 11.4
2010-10-18 07:21:18 51°13.891 2°52.804 234.3 11.4 235 11.5
2010-10-18 07:21:23 51°13.882 2°52.783 234.5 11.4 237 11.5
2010-10-18 07:21:29 51°13.871 2°52.758 234.6 11.4 235 11.6
2010-10-18 07:21:34 51°13.862 2°52.737 234.3 11.4 237 11.5
2010-10-18 07:21:38 51°13.855 2°52.72 234.5 11.4 236 11.4
2010-10-18 07:21:44 51°13.845 2°52.695 235.2 11.4 238 11.6
2010-10-18 07:21:49 51°13.837 2°52.673 236.5 11.4 239 11.5
2010-10-18 07:21:54 51°13.829 2°52.651 237.3 11.4 239 11.5
2010-10-18 07:21:58 51°13.823 2°52.633 237.4 11.4 241 11.6
2010-10-18 07:22:03 51°13.815 2°52.611 238.4 11.4 240 11.5
2010-10-18 07:22:09 51°13.806 2°52.585 238.2 11.5 240 11.7
2010-10-18 07:22:14 51°13.798 2°52.563 239 11.4 241 11.6
2010-10-18 07:22:18 51°13.791 2°52.546 238.4 11.4 239 11.7
2010-10-18 07:22:23 51°13.784 2°52.524 238.7 11.4 242 11.6
2010-10-18 07:22:29 51°13.773 2°52.498 238.8 11.4 240 11.7
2010-10-18 07:22:34 51°13.765 2°52.476 238.6 11.4 241 11.6
2010-10-18 07:22:38 51°13.759 2°52.458 238.9 11.5 239 11.8
2010-10-18 07:22:44 51°13.75 2°52.431 239 11.5 241 11.5
2010-10-18 07:22:49 51°13.742 2°52.41 239 11.4 239 11.7
2010-10-18 07:22:54 51°13.734 2°52.388 239 11.4 241 11.6
2010-10-18 07:22:58 51°13.728 2°52.37 239 11.3 240 11.6
2010-10-18 07:23:03 51°13.721 2°52.35 238.9 10.6 240 11.7
2010-10-18 07:23:09 51°13.713 2°52.327 238.7 9.9 241 11.7
2010-10-18 07:23:14 51°13.706 2°52.31 238.9 9.2 239 11.8
2010-10-18 07:23:18 51°13.702 2°52.297 238.1 8.5 240 11.7
2010-10-18 07:23:24 51°13.695 2°52.28 237.2 7.9 237 11.9
2010-10-18 07:23:29 51°13.689 2°52.266 236 7.3 237 11.9
2010-10-18 07:23:34 51°13.684 2°52.254 234.7 6.8 235 11.9
2010-10-18 07:23:38 51°13.68 2°52.245 233.1 6.3 234 11.9
2010-10-18 07:23:43 51°13.675 2°52.235 232.1 5.9 233 11.8
2010-10-18 07:23:49 51°13.67 2°52.224 230.8 5.5 233 12
2010-10-18 07:23:54 51°13.665 2°52.215 229.6 5.1 232 11.8
2010-10-18 07:23:58 51°13.662 2°52.208 228.4 4.9 230 11.9
2010-10-18 07:24:04 51°13.656 2°52.199 227.7 4.9 228 11.9
2010-10-18 07:24:09 51°13.652 2°52.19 227.7 4.8 231 12
2010-10-18 07:24:14 51°13.648 2°52.182 228.5 4.7 231 12
2010-10-18 07:24:18 51°13.645 2°52.175 230.9 4.8 236 11.8
2010-10-18 07:24:23 51°13.641 2°52.166 234.1 4.9 238 11.9
2010-10-18 07:24:29 51°13.638 2°52.154 238 4.9 243 11.9
2010-10-18 07:24:34 51°13.635 2°52.144 241.5 5.1 244 12
2010-10-18 07:24:38 51°13.633 2°52.135 244.5 5.2 250 11.9
2010-10-18 07:24:43 51°13.631 2°52.124 246.2 5.4 249 12
2010-10-18 07:24:49 51°13.628 2°52.11 247 5.5 250 11.9
2010-10-18 07:24:54 51°13.625 2°52.099 247.1 5.6 250 12
2010-10-18 07:24:58 51°13.623 2°52.089 246.9 5.7 250 12.1
2010-10-18 07:25:04 51°13.619 2°52.075 246.7 5.8 249 12
2010-10-18 07:25:09 51°13.616 2°52.063 246 5.9 249 12
2010-10-18 07:25:14 51°13.613 2°52.051 245.3 5.9 247 12
2010-10-18 07:25:18 51°13.61 2°52.041 244.3 6.1 246 12
2010-10-18 07:25:23 51°13.606 2°52.029 243.5 6.2 245 12
2010-10-18 07:25:29 51°13.602 2°52.014 242.5 6.3 245 12
2010-10-18 07:25:34 51°13.597 2°52.001 241.6 6.4 244 11.9
2010-10-18 07:25:38 51°13.594 2°51.99 241.3 6.5 244 12
2010-10-18 07:25:44 51°13.59 2°51.975 241.8 6.6 245 12
2010-10-18 07:25:49 51°13.586 2°51.961 242.5 6.7 245 12.2
2010-10-18 07:25:54 51°13.582 2°51.947 243.2 6.8 246 12
2010-10-18 07:25:58 51°13.579 2°51.936 244.5 6.9 247 12.1
2010-10-18 07:26:03 51°13.576 2°51.922 245.8 6.9 249 12.1
2010-10-18 07:26:09 51°13.572 2°51.905 247.1 7 250 12
2010-10-18 07:26:14 51°13.569 2°51.89 248.2 7 250 12.2
2010-10-18 07:26:18 51°13.566 2°51.879 249.2 7 252 12
2010-10-18 07:26:23 51°13.563 2°51.864 249.3 7 251 12.1
2010-10-18 07:26:29 51°13.559 2°51.847 248.7 7 250 12.1
2010-10-18 07:26:34 51°13.555 2°51.832 247.5 7.1 247 12.2
2010-10-18 07:26:38 51°13.552 2°51.82 246.3 7.1 247 12.1
2010-10-18 07:26:44 51°13.548 2°51.803 245.7 7 248 12.2
2010-10-18 07:26:49 51°13.545 2°51.789 245.4 7.1 248 12.2
2010-10-18 07:26:54 51°13.541 2°51.774 245.6 7.1 249 12.1
2010-10-18 07:26:58 51°13.538 2°51.762 245.7 7.1 248 12.2
2010-10-18 07:27:03 51°13.535 2°51.747 246.1 7.1 249 12.2
2010-10-18 07:27:09 51°13.53 2°51.73 246.4 7.1 249 12.2
2010-10-18 07:27:14 51°13.527 2°51.715 246.9 7.1 250 12.2
2010-10-18 07:27:18 51°13.525 2°51.704 247.6 6.8 250 12.2
2010-10-18 07:27:24 51°13.521 2°51.688 248.1 6.5 252 12.2
2010-10-18 07:27:29 51°13.518 2°51.675 248.5 6.3 251 12.2
2010-10-18 07:27:34 51°13.516 2°51.662 249.1 6 252 12.2
2010-10-18 07:27:38 51°13.514 2°51.653 249.8 5.8 251 12.2
2010-10-18 07:27:43 51°13.512 2°51.641 250.5 5.5 253 12.4
2010-10-18 07:27:49 51°13.509 2°51.627 251.2 5.3 253 12.4
2010-10-18 07:27:54 51°13.508 2°51.617 251.5 5.1 254 12.4
2010-10-18 07:27:58 51°13.507 2°51.608 251.5 4.9 254 12.3
2010-10-18 07:28:04 51°13.505 2°51.597 251.5 4.7 256 12.4
2010-10-18 07:28:09 51°13.503 2°51.587 251.3 4.5 255 12.3
2010-10-18 07:28:14 51°13.502 2°51.578 250.9 4.3 255 12.5
2010-10-18 07:28:18 51°13.501 2°51.57 250.6 4.2 258 12.3
2010-10-18 07:28:23 51°13.499 2°51.562 250.2 4.1 256 12.5
2010-10-18 07:28:29 51°13.497 2°51.552 249.8 4 254 12.4
2010-10-18 07:28:34 51°13.496 2°51.544 249.5 3.9 253 12.4
2010-10-18 07:28:38 51°13.495 2°51.537 249 3.8 254 12.5
2010-10-18 07:28:43 51°13.493 2°51.53 248.6 3.6 253 12.4
2010-10-18 07:28:49 51°13.492 2°51.521 247.6 3.4 252 12.4
2010-10-18 07:28:54 51°13.49 2°51.515 245.3 3.2 248 12.5
2010-10-18 07:28:58 51°13.488 2°51.51 242.1 3.1 246 12.3
2010-10-18 07:29:04 51°13.486 2°51.503 238.2 2.9 241 12.4
2010-10-18 07:29:09 51°13.484 2°51.498 234.5 2.8 236 12.4
2010-10-18 07:29:14 51°13.481 2°51.494 230 2.7 230 12.4
2010-10-18 07:29:18 51°13.479 2°51.491 225.3 2.7 221 12.5
2010-10-18 07:29:23 51°13.476 2°51.487 220.6 2.5 217 12.4
2010-10-18 07:29:29 51°13.473 2°51.484 215.8 2.5 210 12.5
2010-10-18 07:29:34 51°13.469 2°51.482 211.1 2.4 204 12.5
2010-10-18 07:29:38 51°13.467 2°51.481 206.2 2.5 194 12.5
2010-10-18 07:29:44 51°13.463 2°51.48 201.5 2.4 191 12.4
2010-10-18 07:29:49 51°13.459 2°51.48 195.8 2.6 183 12.4
2010-10-18 07:29:54 51°13.455 2°51.48 189.5 3 178 12.3
2010-10-18 07:29:58 51°13.451 2°51.481 184.6 3.3 173 12.5
2010-10-18 07:30:03 51°13.447 2°51.482 181.5 3.5 173 12.5
2010-10-18 07:30:09 51°13.441 2°51.483 179.5 3.7 171 12.6
2010-10-18 07:30:14 51°13.435 2°51.485 178.3 3.9 169 12.6
2010-10-18 07:30:18 51°13.431 2°51.486 177.5 4.2 170 12.3
2010-10-18 07:30:23 51°13.424 2°51.488 177 4.6 170 12.5
2010-10-18 07:30:29 51°13.416 2°51.49 177.3 4.8 172 12.2
2010-10-18 07:30:34 51°13.41 2°51.491 177.9 5 173 12.4
2010-10-18 07:30:38 51°13.404 2°51.492 179.2 5.1 174 12.4
2010-10-18 07:30:44 51°13.396 2°51.492 180.4 4.9 177 12.3
2010-10-18 07:30:49 51°13.39 2°51.493 182.4 4.6 178 12.3
2010-10-18 07:30:54 51°13.384 2°51.493 184.1 4.3 179 12.4
2010-10-18 07:30:58 51°13.379 2°51.492 186 4.1 182 12.2
2010-10-18 07:31:03 51°13.373 2°51.492 187.8 3.9 183 12.3
2010-10-18 07:31:09 51°13.366 2°51.491 189.8 4 183 12.4
2010-10-18 07:31:14 51°13.361 2°51.49 191.4 3.8 187 12.2
2010-10-18 07:31:18 51°13.358 2°51.489 193 3.7 186 12.5
2010-10-18 07:31:24 51°13.352 2°51.488 194.9 3.4 189 12.2
2010-10-18 07:31:29 51°13.347 2°51.486 196 3.4 192 12.3
2010-10-18 07:31:34 51°13.343 2°51.485 197.8 3.4 192 12.3
2010-10-18 07:31:38 51°13.339 2°51.483 199.5 3.3 195 12.3
2010-10-18 07:31:43 51°13.335 2°51.481 201.1 3.3 195 12.2
2010-10-18 07:31:49 51°13.329 2°51.479 202.6 3.3 196 12.4
2010-10-18 07:31:54 51°13.325 2°51.476 204.2 3.3 199 12.3
2010-10-18 07:31:58 51°13.322 2°51.474 205.5 3.2 202 12.2
2010-10-18 07:32:04 51°13.317 2°51.471 207.1 3.2 203 12.3
2010-10-18 07:32:09 51°13.313 2°51.468 209 3.2 206 12.1
2010-10-18 07:32:14 51°13.31 2°51.464 210.5 3.2 207 12.2
2010-10-18 07:32:18 51°13.307 2°51.462 211.6 3 209 12.3
2010-10-18 07:32:23 51°13.303 2°51.459 212.4 3 208 12.2
2010-10-18 07:32:29 51°13.299 2°51.454 212.7 3 213 12
2010-10-18 07:32:34 51°13.295 2°51.451 212.9 3.1 209 12.3
2010-10-18 07:32:38 51°13.292 2°51.448 213.3 3.1 210 12.2
2010-10-18 07:32:43 51°13.288 2°51.445 212.9 3.1 208 12.3
2010-10-18 07:32:49 51°13.284 2°51.441 212.4 3.2 209 12.1
2010-10-18 07:32:54 51°13.28 2°51.438 212 3.2 206 12.2
2010-10-18 07:32:58 51°13.277 2°51.435 211.6 3.1 211 12.1
2010-10-18 07:33:04 51°13.272 2°51.432 210.3 3.1 206 12.1
2010-10-18 07:33:09 51°13.268 2°51.429 209.2 3.1 205 12.1
2010-10-18 07:33:14 51°13.265 2°51.426 207.6 3 202 12.1
2010-10-18 07:33:18 51°13.262 2°51.424 205.8 3 202 12.3
2010-10-18 07:33:23 51°13.257 2°51.422 204.6 3.1 198 12
2010-10-18 07:33:29 51°13.253 2°51.42 202.9 3 199 12
2010-10-18 07:33:34 51°13.249 2°51.418 201.8 2.9 196 12.1
2010-10-18 07:33:38 51°13.245 2°51.417 200.8 3 197 12
2010-10-18 07:33:44 51°13.24 2°51.414 199.8 3.1 195 12
2010-10-18 07:33:49 51°13.236 2°51.413 198.9 3.1 192 12.1
2010-10-18 07:33:54 51°13.231 2°51.412 198.2 3.2 190 12
2010-10-18 07:33:58 51°13.228 2°51.411 197.5 3.2 188 12
2010-10-18 07:34:03 51°13.224 2°51.41 196.8 3.1 189 12
2010-10-18 07:34:09 51°13.219 2°51.409 196.5 3.1 186 12.1
2010-10-18 07:34:14 51°13.215 2°51.408 195.9 3 189 11.8
2010-10-18 07:34:18 51°13.212 2°51.408 195.7 3.1 186 11.9
2010-10-18 07:34:23 51°13.208 2°51.407 196 3.1 188 11.9
2010-10-18 07:34:29 51°13.203 2°51.405 196.3 3 187 12
2010-10-18 07:34:34 51°13.199 2°51.405 196.7 2.9 189 12
2010-10-18 07:34:38 51°13.196 2°51.404 197 3 187 11.8
2010-10-18 07:34:44 51°13.191 2°51.403 197.1 2.8 187 12
2010-10-18 07:34:49 51°13.187 2°51.402 197.5 2.8 189 11.9
2010-10-18 07:34:54 51°13.182 2°51.401 197.5 2.9 186 11.9
2010-10-18 07:34:58 51°13.179 2°51.4 197.6 2.9 189 11.9
2010-10-18 07:35:03 51°13.175 2°51.399 197.6 2.9 189 11.8
2010-10-18 07:35:09 51°13.17 2°51.398 198.3 2.9 189 11.7
2010-10-18 07:35:14 51°13.166 2°51.397 198.3 3 190 11.8
2010-10-18 07:35:18 51°13.163 2°51.396 198.7 2.9 189 11.7
2010-10-18 07:35:24 51°13.158 2°51.394 199.1 2.8 191 11.9
2010-10-18 07:35:29 51°13.155 2°51.393 199.2 2.7 191 11.8
2010-10-18 07:35:34 51°13.15 2°51.392 199.4 2.8 190 11.8
2010-10-18 07:35:38 51°13.147 2°51.391 199.2 3 190 11.7
2010-10-18 07:35:43 51°13.143 2°51.39 199.2 3 190 11.7
2010-10-18 07:35:49 51°13.138 2°51.389 199 2.9 191 11.7
2010-10-18 07:35:54 51°13.134 2°51.387 198.9 2.9 189 11.7
2010-10-18 07:35:58 51°13.131 2°51.386 198.8 2.9 192 11.6
2010-10-18 07:36:04 51°13.126 2°51.385 199 3 189 11.6
2010-10-18 07:36:09 51°13.122 2°51.383 198.7 2.9 193 11.6
2010-10-18 07:36:14 51°13.118 2°51.382 198.7 2.8 190 11.6
2010-10-18 07:36:18 51°13.115 2°51.381 198.7 2.9 193 11.6
2010-10-18 07:36:23 51°13.111 2°51.38 198.7 3 190 11.6
2010-10-18 07:36:29 51°13.106 2°51.379 198.8 3 190 11.7
2010-10-18 07:36:34 51°13.102 2°51.377 198.5 3 191 11.5
2010-10-18 07:36:38 51°13.099 2°51.376 198.2 2.8 191 11.4
2010-10-18 07:36:43 51°13.094 2°51.376 198.4 3 187 11.5
2010-10-18 07:36:49 51°13.089 2°51.374 198.1 3.1 190 11.5
2010-10-18 07:36:54 51°13.086 2°51.373 197.9 3 187 11.6
2010-10-18 07:36:58 51°13.083 2°51.372 197.8 3 190 11.5
2010-10-18 07:37:04 51°13.078 2°51.371 197.7 2.9 190 11.3
2010-10-18 07:37:09 51°13.074 2°51.37 198 2.8 191 11.5
2010-10-18 07:37:14 51°13.07 2°51.368 198.3 2.9 193 11.6
2010-10-18 07:37:18 51°13.067 2°51.368 199 3 188 11.7
2010-10-18 07:37:23 51°13.063 2°51.366 199 2.9 192 11.3
2010-10-18 07:37:29 51°13.058 2°51.365 199 3 190 11.5
2010-10-18 07:37:34 51°13.054 2°51.363 199.2 2.8 194 11.5
2010-10-18 07:37:38 51°13.051 2°51.362 199.4 2.8 191 11.4
2010-10-18 07:37:44 51°13.046 2°51.361 199.2 2.9 192 11.5
2010-10-18 07:37:49 51°13.042 2°51.36 199.2 2.9 189 11.4
2010-10-18 07:37:54 51°13.038 2°51.359 198.8 2.9 192 11.6
2010-10-18 07:37:58 51°13.035 2°51.358 198.7 2.9 188 11.5
2010-10-18 07:38:03 51°13.031 2°51.357 198.2 2.8 190 11.3
2010-10-18 07:38:09 51°13.026 2°51.356 198 2.9 187 11.4
2010-10-18 07:38:14 51°13.023 2°51.355 197.6 2.9 189 11.5
2010-10-18 07:38:18 51°13.019 2°51.354 197.6 2.8 189 11.3
2010-10-18 07:38:23 51°13.016 2°51.353 197.8 2.8 190 11.3
2010-10-18 07:38:29 51°13.011 2°51.352 198.1 2.9 189 11.6
2010-10-18 07:38:34 51°13.007 2°51.351 198.2 2.8 190 11.2
2010-10-18 07:38:38 51°13.003 2°51.35 198.4 3 190 11.3
2010-10-18 07:38:44 51°12.999 2°51.348 199.3 2.7 192 11.4
2010-10-18 07:38:49 51°12.995 2°51.347 200.3 2.7 194 11.3
2010-10-18 07:38:54 51°12.991 2°51.345 201.9 2.8 196 11.5
2010-10-18 07:38:58 51°12.988 2°51.344 204.3 2.8 198 11.3
2010-10-18 07:39:03 51°12.985 2°51.342 206.2 2.6 203 11.4
2010-10-18 07:39:09 51°12.98 2°51.339 207.8 2.8 201 11.5
2010-10-18 07:39:14 51°12.976 2°51.337 209.8 2.9 202 11.3
2010-10-18 07:39:18 51°12.974 2°51.335 211.1 2.8 203 11.4
2010-10-18 07:39:24 51°12.971 2°51.331 213 2.7 208 11.3
2010-10-18 07:39:29 51°12.967 2°51.328 214.1 2.8 209 11.4
2010-10-18 07:39:34 51°12.963 2°51.325 215.4 2.8 212 11.4
2010-10-18 07:39:38 51°12.96 2°51.322 217.1 3 213 11.2
2010-10-18 07:39:43 51°12.957 2°51.318 218.5 3 218 11.3
2010-10-18 07:39:49 51°12.953 2°51.313 220.5 3 218 11.3
2010-10-18 07:39:54 51°12.95 2°51.309 222.7 3.1 221 11.3
2010-10-18 07:39:58 51°12.948 2°51.305 224.4 3.1 221 11.3
2010-10-18 07:40:04 51°12.944 2°51.299 226 3.2 225 11.3
2010-10-18 07:40:09 51°12.941 2°51.293 227.6 3.2 226 11.3
2010-10-18 07:40:14 51°12.938 2°51.288 228.7 3.2 228 11.4
2010-10-18 07:40:18 51°12.936 2°51.284 230 3.3 231 11.4
2010-10-18 07:40:23 51°12.933 2°51.277 230.9 3.4 234 11.3
2010-10-18 07:40:29 51°12.929 2°51.27 232.1 3.4 232 11.4
2010-10-18 07:40:34 51°12.927 2°51.264 233.1 3.5 237 11.3
2010-10-18 07:40:38 51°12.925 2°51.259 233.9 3.4 236 11.2
2010-10-18 07:40:43 51°12.922 2°51.252 234.2 3.5 237 11.3
2010-10-18 07:40:49 51°12.918 2°51.245 234.5 3.5 234 11.4
2010-10-18 07:40:54 51°12.916 2°51.238 234.6 3.6 238 11.3
2010-10-18 07:40:58 51°12.914 2°51.233 234.9 3.6 236 11.2
2010-10-18 07:41:04 51°12.911 2°51.225 235 3.6 237 11.4
2010-10-18 07:41:09 51°12.908 2°51.219 235.3 3.5 237 11.4
2010-10-18 07:41:14 51°12.905 2°51.212 235.6 3.6 238 11.4
2010-10-18 07:41:18 51°12.903 2°51.207 235.6 3.5 239 11.4
2010-10-18 07:41:23 51°12.901 2°51.2 235.7 3.5 237 11.4
2010-10-18 07:41:29 51°12.897 2°51.192 235 3.5 237 11.4
2010-10-18 07:41:34 51°12.894 2°51.186 233.4 3.5 235 11.4
2010-10-18 07:41:38 51°12.892 2°51.181 231.7 3.6 234 11.4
2010-10-18 07:41:44 51°12.888 2°51.174 230.3 3.5 232 11.4
2010-10-18 07:41:49 51°12.885 2°51.167 229 3.6 231 11.3
2010-10-18 07:41:54 51°12.882 2°51.162 227.9 3.6 227 11.3
2010-10-18 07:41:58 51°12.879 2°51.157 226.9 3.5 228 11.3
2010-10-18 07:42:03 51°12.876 2°51.152 225.9 3.5 225 11.5
2010-10-18 07:42:09 51°12.872 2°51.145 225.2 3.6 225 11.3
2010-10-18 07:42:14 51°12.868 2°51.139 224.5 3.5 224 11.3
2010-10-18 07:42:18 51°12.865 2°51.135 223.8 3.5 224 11.4
2010-10-18 07:42:23 51°12.861 2°51.13 222.7 3.5 222 11.4
2010-10-18 07:42:29 51°12.857 2°51.124 222.1 3.6 220 11.4
2010-10-18 07:42:34 51°12.853 2°51.119 221.3 3.6 221 11.3
2010-10-18 07:42:38 51°12.85 2°51.115 221.3 3.6 218 11.5
2010-10-18 07:42:44 51°12.845 2°51.109 220.8 3.6 219 11.5
2010-10-18 07:42:49 51°12.841 2°51.104 220.5 3.6 218 11.3
2010-10-18 07:42:54 51°12.837 2°51.099 220 3.6 217 11.5
2010-10-18 07:42:58 51°12.834 2°51.095 219.8 3.6 217 11.3
2010-10-18 07:43:03 51°12.83 2°51.09 220 3.6 220 11.3
2010-10-18 07:43:09 51°12.826 2°51.084 220.5 3.6 221 11.3
2010-10-18 07:43:14 51°12.822 2°51.079 221.8 3.6 220 11.3
2010-10-18 07:43:18 51°12.819 2°51.075 222.3 3.6 222 11.4
2010-10-18 07:43:24 51°12.815 2°51.068 222.9 3.6 221 11.3
2010-10-18 07:43:29 51°12.811 2°51.063 223.6 3.6 221 11.4
2010-10-18 07:43:34 51°12.807 2°51.057 224 3.6 224 11.5
2010-10-18 07:43:38 51°12.804 2°51.053 224.5 3.6 223 11.3
2010-10-18 07:43:43 51°12.801 2°51.048 225.1 3.6 224 11.3
2010-10-18 07:43:49 51°12.797 2°51.041 224.9 3.6 224 11.4
2010-10-18 07:43:54 51°12.793 2°51.035 225.1 3.7 226 11.3
2010-10-18 07:43:58 51°12.79 2°51.031 225.2 3.6 224 11.3
2010-10-18 07:44:04 51°12.786 2°51.024 225.5 3.6 226 11.4
2010-10-18 07:44:09 51°12.783 2°51.018 225.5 3.6 227 11.3
2010-10-18 07:44:14 51°12.779 2°51.012 225.7 3.6 226 11.2
2010-10-18 07:44:18 51°12.776 2°51.008 225.7 3.6 226 11.4
2010-10-18 07:44:23 51°12.773 2°51.002 225.8 3.6 224 11.3
2010-10-18 07:44:29 51°12.769 2°50.996 225.8 3.6 226 11.3
2010-10-18 07:44:34 51°12.765 2°50.99 226.4 3.6 226 11.3
2010-10-18 07:44:38 51°12.763 2°50.985 227.1 3.5 227 11.4
2010-10-18 07:44:43 51°12.76 2°50.979 227.8 3.5 228 11.3
2010-10-18 07:44:49 51°12.756 2°50.972 228.6 3.4 230 11.4
2010-10-18 07:44:54 51°12.753 2°50.967 229.2 3.4 229 11.5
2010-10-18 07:44:58 51°12.751 2°50.962 229.5 3.4 232 11.3
2010-10-18 07:45:04 51°12.747 2°50.955 230 3.3 229 11.3
2010-10-18 07:45:09 51°12.744 2°50.949 230.2 3.4 232 11.4
2010-10-18 07:45:14 51°12.741 2°50.944 230.3 3.3 232 11.2
2010-10-18 07:45:18 51°12.739 2°50.939 230.4 3.3 231 11.3
2010-10-18 07:45:23 51°12.736 2°50.933 230.7 3.3 231 11.3
2010-10-18 07:45:29 51°12.733 2°50.926 230.8 3.3 233 11.4
2010-10-18 07:45:34 51°12.73 2°50.92 231.4 3.3 235 11.3